Time;durP1;ratioP1;P1;durP2;ratioP2;P2;SDS_P1;SDS_P2;PMS_P1;PMS_P2;Temp;Humidity;BMP_temperature;BMP_pressure;BME280_temperature;BME280_humidity;BME280_pressure;Samples;Min_cycle;Max_cycle;Signal;HPM_P1;HPM_P2
2022/10/18 00:00:38;;;;;;;136.13;30.23;;;11.70;99.90;;;;;;5123007;27;20027;-64
2022/10/18 00:03:03;;;;;;;56.22;23.55;;;11.80;99.90;;;;;;5120283;27;20058;-64
2022/10/18 00:05:29;;;;;;;82.88;21.83;;;11.70;99.90;;;;;;5117769;27;20062;-64
2022/10/18 00:07:55;;;;;;;156.52;34.28;;;11.70;99.90;;;;;;5122298;27;20031;-63
2022/10/18 00:10:23;;;;;;;366.30;41.75;;;11.70;99.90;;;;;;5121797;27;20047;-64
2022/10/18 00:12:48;;;;;;;44.05;22.73;;;11.70;99.90;;;;;;5123807;27;20114;-65
2022/10/18 00:15:14;;;;;;;34.55;19.92;;;11.70;99.90;;;;;;5121760;27;20135;-63
2022/10/18 00:17:39;;;;;;;256.02;30.20;;;11.70;99.90;;;;;;5120129;27;20111;-65
2022/10/18 00:20:06;;;;;;;516.95;53.33;;;11.60;99.90;;;;;;5122943;27;20462;-63
2022/10/18 00:22:37;;;;;;;69.65;24.38;;;11.60;99.90;;;;;;5122352;27;20454;-64
2022/10/18 00:25:05;;;;;;;36.67;21.20;;;11.60;99.90;;;;;;5117334;27;20044;-64
2022/10/18 00:27:31;;;;;;;74.15;28.00;;;11.60;99.90;;;;;;5121227;27;20070;-64
2022/10/18 00:29:57;;;;;;;163.90;36.30;;;11.60;99.90;;;;;;5122595;27;20459;-64
2022/10/18 00:32:23;;;;;;;131.50;25.52;;;11.70;99.90;;;;;;5125713;27;20035;-63
2022/10/18 00:34:48;;;;;;;35.28;20.55;;;11.70;99.90;;;;;;5125550;27;20043;-65
2022/10/18 00:37:14;;;;;;;94.95;31.00;;;11.60;99.90;;;;;;5121139;27;20063;-64
2022/10/18 00:39:40;;;;;;;54.95;25.83;;;11.60;99.90;;;;;;5126826;27;20043;-64
2022/10/18 00:42:06;;;;;;;61.63;25.42;;;11.60;99.90;;;;;;5119722;27;20483;-63
2022/10/18 00:44:32;;;;;;;279.05;30.75;;;11.60;99.90;;;;;;5117836;27;20047;-64
2022/10/18 00:47:02;;;;;;;422.30;48.67;;;11.60;99.90;;;;;;5115281;27;20130;-64
2022/10/18 00:49:34;;;;;;;74.80;15.50;;;11.60;99.90;;;;;;5122907;27;20471;-64
2022/10/18 00:52:12;;;;;;;49.70;18.98;;;11.60;99.90;;;;;;5119634;27;20032;-64
2022/10/18 00:54:41;;;;;;;32.88;16.67;;;11.60;99.90;;;;;;5129439;27;20570;-64
2022/10/18 00:57:07;;;;;;;21.48;10.18;;;11.70;99.90;;;;;;5124011;27;20384;-65
2022/10/18 00:59:34;;;;;;;15.75;5.13;;;11.70;99.90;;;;;;5121734;27;20127;-64
2022/10/18 01:02:00;;;;;;;10.98;6.90;;;11.70;99.90;;;;;;5118525;27;20075;-64
2022/10/18 01:04:26;;;;;;;15.60;6.70;;;11.60;99.90;;;;;;5116575;27;20051;-63
2022/10/18 01:07:23;;;;;;;100.30;21.13;;;11.60;99.90;;;;;;5123928;27;20036;-63
2022/10/18 01:10:09;;;;;;;298.63;44.95;;;11.70;99.90;;;;;;5122638;27;20518;-63
2022/10/18 01:13:08;;;;;;;43.45;22.33;;;11.70;99.90;;;;;;5117365;27;20091;-63
2022/10/18 01:15:47;;;;;;;302.55;36.22;;;11.70;99.90;;;;;;5121326;27;20462;-64
2022/10/18 01:18:42;;;;;;;120.63;26.35;;;11.70;99.90;;;;;;5120628;27;20399;-64
2022/10/18 01:21:37;;;;;;;272.55;49.42;;;11.70;99.90;;;;;;5118877;27;20035;-65
2022/10/18 01:24:24;;;;;;;37.38;20.77;;;11.70;99.90;;;;;;5119745;27;20180;-64
2022/10/18 01:27:19;;;;;;;390.15;38.08;;;11.70;99.90;;;;;;5124106;27;20069;-64
2022/10/18 01:30:11;;;;;;;426.35;35.83;;;11.70;99.90;;;;;;5112856;27;20066;-63
2022/10/18 01:32:47;;;;;;;54.72;22.30;;;11.70;99.90;;;;;;5121073;27;20114;-64
2022/10/18 01:35:21;;;;;;;32.08;19.25;;;11.60;99.90;;;;;;5117782;27;20047;-63
2022/10/18 01:37:49;;;;;;;1189.03;64.63;;;11.60;99.90;;;;;;5122124;27;20031;-64
2022/10/18 01:40:19;;;;;;;628.38;43.83;;;11.60;99.90;;;;;;5119623;27;20051;-64
2022/10/18 01:42:47;;;;;;;359.48;33.33;;;11.50;99.90;;;;;;5120473;27;20051;-63
2022/10/18 01:45:15;;;;;;;52.80;21.77;;;11.50;99.90;;;;;;5119232;27;20070;-64
2022/10/18 01:47:44;;;;;;;45.95;23.25;;;11.50;99.90;;;;;;5122226;27;20155;-63
2022/10/18 01:50:10;;;;;;;331.25;43.63;;;11.50;99.90;;;;;;5118072;27;20039;-63
2022/10/18 01:52:47;;;;;;;76.63;23.90;;;11.40;99.90;;;;;;5105585;27;20055;-64
2022/10/18 01:55:13;;;;;;;36.00;19.70;;;11.50;99.90;;;;;;5122342;27;20092;-63
2022/10/18 01:57:58;;;;;;;109.18;26.88;;;11.40;99.90;;;;;;5120496;27;20035;-63
2022/10/18 02:00:35;;;;;;;58.35;22.98;;;11.30;99.90;;;;;;5112574;27;20344;-63
2022/10/18 02:03:11;;;;;;;262.55;32.28;;;11.30;99.90;;;;;;5125449;27;20261;-64
2022/10/18 02:05:53;;;;;;;454.80;43.47;;;11.30;99.90;;;;;;5119136;27;20050;-64
2022/10/18 02:08:36;;;;;;;125.78;26.27;;;11.20;99.90;;;;;;5111259;27;20113;-63
2022/10/18 02:11:09;;;;;;;160.02;33.70;;;11.20;99.90;;;;;;5113412;27;20432;-64
2022/10/18 02:13:42;;;;;;;164.73;26.52;;;11.20;99.90;;;;;;5125500;27;20043;-64
2022/10/18 02:16:12;;;;;;;56.13;21.05;;;11.10;99.90;;;;;;5116583;27;20036;-64
2022/10/18 02:18:44;;;;;;;119.97;25.73;;;11.10;99.90;;;;;;5123552;27;20050;-63
2022/10/18 02:21:14;;;;;;;449.48;43.10;;;11.10;99.90;;;;;;5115138;27;20044;-64
2022/10/18 02:23:42;;;;;;;52.40;20.60;;;11.10;99.90;;;;;;5122676;27;20043;-64
2022/10/18 02:26:08;;;;;;;42.33;18.40;;;11.00;99.90;;;;;;5119083;27;20071;-64
2022/10/18 02:28:33;;;;;;;28.73;16.45;;;11.00;99.90;;;;;;5119255;28;20518;-64
2022/10/18 02:31:20;;;;;;;367.17;35.60;;;10.90;99.90;;;;;;5120843;28;20395;-65
2022/10/18 02:34:23;;;;;;;121.07;24.08;;;10.90;99.90;;;;;;5120190;28;20046;-64
2022/10/18 02:36:58;;;;;;;685.22;61.50;;;10.90;99.90;;;;;;5122323;28;20048;-63
2022/10/18 02:39:29;;;;;;;26.55;16.60;;;10.90;99.90;;;;;;5116781;28;20043;-64
2022/10/18 02:41:55;;;;;;;362.33;33.63;;;10.90;99.90;;;;;;5116637;28;20044;-65
2022/10/18 02:44:21;;;;;;;148.57;26.58;;;10.80;99.90;;;;;;5123416;27;20122;-63
2022/10/18 02:46:47;;;;;;;42.45;22.05;;;10.80;99.90;;;;;;5114782;27;20527;-63
2022/10/18 02:49:13;;;;;;;79.80;24.10;;;10.80;99.90;;;;;;5118697;28;20097;-64
2022/10/18 02:51:38;;;;;;;30.63;18.42;;;10.70;99.90;;;;;;5119600;28;20039;-64
2022/10/18 02:54:04;;;;;;;75.93;24.15;;;10.70;99.90;;;;;;5123716;28;20539;-63
2022/10/18 02:56:30;;;;;;;56.15;23.35;;;10.70;99.90;;;;;;5115894;27;20070;-64
2022/10/18 02:58:56;;;;;;;39.42;19.17;;;10.70;99.90;;;;;;5115875;28;20043;-63
2022/10/18 03:01:22;;;;;;;32.70;19.42;;;10.70;99.90;;;;;;5119453;28;20047;-65
2022/10/18 03:03:48;;;;;;;44.50;21.45;;;10.70;99.90;;;;;;5118150;28;20031;-64
2022/10/18 03:06:14;;;;;;;198.25;33.17;;;10.70;99.90;;;;;;5115663;27;20043;-64
2022/10/18 03:08:40;;;;;;;547.05;41.25;;;10.70;99.90;;;;;;5117011;28;20050;-64
2022/10/18 03:11:06;;;;;;;760.13;67.50;;;10.70;99.90;;;;;;5114546;28;20064;-63
2022/10/18 03:13:32;;;;;;;85.43;28.27;;;10.70;99.90;;;;;;5116707;28;20344;-63
2022/10/18 03:15:59;;;;;;;128.88;31.15;;;10.70;99.90;;;;;;5110522;28;20110;-63
2022/10/18 03:18:25;;;;;;;413.27;50.15;;;10.60;99.90;;;;;;5118556;28;20042;-63
2022/10/18 03:20:50;;;;;;;97.32;31.27;;;10.60;99.90;;;;;;5124906;27;20035;-64
2022/10/18 03:23:16;;;;;;;221.27;33.58;;;10.80;99.90;;;;;;5123123;27;20043;-63
2022/10/18 03:25:42;;;;;;;149.38;30.42;;;10.70;99.90;;;;;;5127319;27;20035;-64
2022/10/18 03:28:07;;;;;;;249.82;40.72;;;10.80;99.90;;;;;;5122818;27;20070;-64
2022/10/18 03:30:33;;;;;;;161.55;32.20;;;10.80;99.90;;;;;;5122206;27;20069;-64
2022/10/18 03:32:59;;;;;;;488.33;60.40;;;10.70;99.90;;;;;;5119943;27;20043;-64
2022/10/18 03:35:24;;;;;;;108.50;28.00;;;10.80;99.90;;;;;;5125824;27;20027;-63
2022/10/18 03:37:50;;;;;;;464.02;59.88;;;10.80;99.90;;;;;;5120103;27;20039;-64
2022/10/18 03:40:16;;;;;;;44.55;23.90;;;10.80;99.90;;;;;;5125262;27;20118;-64
2022/10/18 03:42:41;;;;;;;228.68;31.65;;;10.80;99.90;;;;;;5122609;27;20482;-63
2022/10/18 03:45:08;;;;;;;903.67;88.25;;;10.80;99.90;;;;;;5125329;27;20113;-64
2022/10/18 03:47:33;;;;;;;530.90;59.97;;;10.80;99.90;;;;;;5122126;27;20065;-63
2022/10/18 03:49:59;;;;;;;252.02;38.72;;;10.90;99.90;;;;;;5124679;27;20153;-63
2022/10/18 03:52:25;;;;;;;48.88;25.20;;;10.90;99.90;;;;;;5122135;27;20035;-64
2022/10/18 03:54:50;;;;;;;65.22;27.35;;;11.00;99.90;;;;;;5118101;27;20113;-63
2022/10/18 03:57:16;;;;;;;217.73;42.22;;;10.90;99.90;;;;;;5126643;27;20050;-64
2022/10/18 03:59:42;;;;;;;439.67;56.53;;;10.90;99.90;;;;;;5123229;27;20035;-63
2022/10/18 04:02:07;;;;;;;711.78;81.47;;;11.00;99.90;;;;;;5123381;27;20075;-63
2022/10/18 04:04:33;;;;;;;457.10;51.40;;;11.00;99.90;;;;;;5118726;27;20042;-63
2022/10/18 04:06:59;;;;;;;401.17;57.83;;;11.00;99.90;;;;;;5122593;27;20040;-64
2022/10/18 04:09:24;;;;;;;172.82;43.45;;;11.10;99.90;;;;;;5123723;27;20055;-63
2022/10/18 04:11:50;;;;;;;587.72;78.70;;;11.10;99.90;;;;;;5122085;27;20059;-63
2022/10/18 04:14:16;;;;;;;320.13;48.47;;;11.20;99.90;;;;;;5115495;27;20043;-63
2022/10/18 04:16:42;;;;;;;101.75;35.90;;;11.20;99.90;;;;;;5119777;27;20126;-63
2022/10/18 04:19:07;;;;;;;322.20;54.47;;;11.20;99.90;;;;;;5123243;27;20042;-63
2022/10/18 04:21:33;;;;;;;117.45;38.17;;;11.30;99.90;;;;;;5122116;27;20050;-64
2022/10/18 04:23:59;;;;;;;289.63;52.03;;;11.30;99.90;;;;;;5100885;27;20131;-63
2022/10/18 04:26:24;;;;;;;222.05;49.08;;;11.40;99.90;;;;;;5123921;27;20035;-63
2022/10/18 04:28:50;;;;;;;674.47;82.40;;;11.40;99.90;;;;;;5124648;27;20050;-63
2022/10/18 04:31:16;;;;;;;696.33;83.70;;;11.40;99.90;;;;;;5114720;27;20046;-63
2022/10/18 04:33:41;;;;;;;327.40;55.53;;;11.50;99.90;;;;;;5118101;27;20050;-64
2022/10/18 04:36:07;;;;;;;322.30;56.17;;;11.50;99.90;;;;;;5125403;27;20119;-63
2022/10/18 04:38:33;;;;;;;408.35;65.45;;;11.50;99.90;;;;;;5126193;27;20079;-62
2022/10/18 04:40:59;;;;;;;204.50;47.72;;;11.60;99.90;;;;;;5127601;27;20149;-63
2022/10/18 04:43:24;;;;;;;202.38;47.97;;;11.60;99.90;;;;;;5117865;27;20157;-63
2022/10/18 04:45:50;;;;;;;187.07;47.45;;;11.60;99.90;;;;;;5122313;27;20044;-63
2022/10/18 04:48:19;;;;;;;625.70;81.55;;;11.60;99.90;;;;;;5123837;27;20185;-63
2022/10/18 04:50:48;;;;;;;156.30;44.03;;;11.60;99.90;;;;;;5119518;27;20043;-63
2022/10/18 04:53:15;;;;;;;176.38;46.88;;;11.70;99.90;;;;;;5116039;27;20530;-64
2022/10/18 04:55:48;;;;;;;416.75;55.33;;;11.70;99.90;;;;;;5119796;27;20133;-63
2022/10/18 04:58:15;;;;;;;140.75;40.03;;;11.70;99.90;;;;;;5127518;27;20028;-63
2022/10/18 05:00:41;;;;;;;144.80;39.08;;;11.70;99.90;;;;;;5117679;27;20051;-63
2022/10/18 05:03:07;;;;;;;418.40;63.97;;;11.70;99.90;;;;;;5118261;27;20483;-63
2022/10/18 05:05:33;;;;;;;327.98;58.13;;;11.70;99.90;;;;;;5118154;27;20054;-64
2022/10/18 05:07:59;;;;;;;201.65;45.17;;;11.80;99.90;;;;;;5120559;27;20051;-63
2022/10/18 05:10:25;;;;;;;169.00;41.60;;;11.80;99.90;;;;;;5115943;27;20048;-63
2022/10/18 05:12:50;;;;;;;125.50;38.88;;;11.80;99.90;;;;;;5119523;27;20042;-63
2022/10/18 05:15:16;;;;;;;100.50;35.40;;;11.70;99.90;;;;;;5126224;27;20494;-63
2022/10/18 05:17:42;;;;;;;119.28;35.20;;;11.80;99.90;;;;;;5124277;27;20375;-63
2022/10/18 05:20:08;;;;;;;101.95;36.00;;;11.80;99.90;;;;;;5117866;27;20031;-63
2022/10/18 05:22:33;;;;;;;163.65;40.70;;;11.80;99.90;;;;;;5117678;27;20070;-63
2022/10/18 05:24:59;;;;;;;111.82;35.45;;;11.80;99.90;;;;;;5124138;27;20039;-63
2022/10/18 05:27:25;;;;;;;239.75;46.13;;;11.80;99.90;;;;;;5119652;27;20177;-63
2022/10/18 05:29:50;;;;;;;81.65;31.92;;;11.80;99.90;;;;;;5123399;27;20039;-63
2022/10/18 05:32:16;;;;;;;160.70;39.10;;;11.80;99.90;;;;;;5122000;27;20032;-64
2022/10/18 05:34:42;;;;;;;124.78;33.35;;;11.80;99.90;;;;;;5125883;27;20039;-63
2022/10/18 05:37:07;;;;;;;201.00;41.17;;;11.70;99.90;;;;;;5120168;27;20039;-63
2022/10/18 05:39:33;;;;;;;322.52;44.50;;;11.80;99.90;;;;;;5121068;27;20046;-64
2022/10/18 05:41:59;;;;;;;210.68;40.65;;;11.70;99.90;;;;;;5117482;27;20046;-63
2022/10/18 05:44:24;;;;;;;105.72;32.38;;;11.70;99.90;;;;;;5120910;27;20053;-64
2022/10/18 05:46:50;;;;;;;263.70;42.45;;;11.70;99.90;;;;;;5115953;27;20104;-63
2022/10/18 05:49:16;;;;;;;211.05;41.38;;;11.70;99.90;;;;;;5112927;27;20090;-63
2022/10/18 05:51:42;;;;;;;167.20;37.10;;;11.70;99.90;;;;;;5120011;27;20079;-65
2022/10/18 05:54:12;;;;;;;149.43;37.03;;;11.60;99.90;;;;;;5119056;27;20043;-64
2022/10/18 05:56:38;;;;;;;129.07;29.38;;;11.60;99.90;;;;;;5118866;27;20031;-63
2022/10/18 05:59:08;;;;;;;176.95;37.35;;;11.50;99.90;;;;;;5114393;27;20134;-63
2022/10/18 06:01:38;;;;;;;234.27;38.75;;;11.40;99.90;;;;;;5123712;27;20100;-64
2022/10/18 06:04:04;;;;;;;289.30;42.30;;;11.40;99.90;;;;;;5118436;27;20032;-63
2022/10/18 06:06:31;;;;;;;157.35;37.17;;;11.40;99.90;;;;;;5119958;27;20047;-64
2022/10/18 06:08:57;;;;;;;71.68;24.42;;;11.30;99.90;;;;;;5115533;27;20051;-63
2022/10/18 06:11:23;;;;;;;180.75;37.22;;;11.40;99.90;;;;;;5122118;27;20050;-63
2022/10/18 06:13:50;;;;;;;159.43;30.55;;;11.40;99.90;;;;;;5115296;27;20072;-63
2022/10/18 06:16:18;;;;;;;182.55;39.08;;;11.30;99.90;;;;;;5119621;27;20055;-65
2022/10/18 06:18:50;;;;;;;337.33;44.30;;;11.40;99.90;;;;;;5116131;27;20039;-64
2022/10/18 06:21:16;;;;;;;75.40;23.95;;;11.40;99.90;;;;;;5123648;27;20054;-63
2022/10/18 06:23:42;;;;;;;126.55;28.45;;;11.30;99.90;;;;;;5123158;27;20134;-64
2022/10/18 06:26:10;;;;;;;128.70;30.40;;;11.30;99.90;;;;;;5124423;27;20503;-64
2022/10/18 06:28:37;;;;;;;322.58;43.03;;;11.30;99.90;;;;;;5114728;28;20497;-63
2022/10/18 06:31:04;;;;;;;144.20;28.88;;;11.30;99.90;;;;;;5123796;27;20027;-63
2022/10/18 06:33:30;;;;;;;335.92;45.67;;;11.30;99.90;;;;;;5123600;28;20382;-64
2022/10/18 06:36:02;;;;;;;199.52;33.60;;;11.30;99.90;;;;;;5126743;27;20388;-64
2022/10/18 06:38:28;;;;;;;138.85;32.13;;;11.40;99.90;;;;;;5117630;28;20474;-63
2022/10/18 06:40:56;;;;;;;98.22;26.75;;;11.30;99.90;;;;;;5124118;27;20403;-63
2022/10/18 06:43:22;;;;;;;253.23;37.35;;;11.30;99.90;;;;;;5122108;27;20043;-63
2022/10/18 06:45:49;;;;;;;246.65;40.42;;;11.30;99.90;;;;;;5121160;27;20035;-63
2022/10/18 06:48:15;;;;;;;375.50;51.33;;;11.40;99.90;;;;;;5113113;28;20447;-64
2022/10/18 06:50:41;;;;;;;272.27;41.80;;;11.40;99.90;;;;;;5119777;28;20413;-63
2022/10/18 06:53:07;;;;;;;316.95;48.85;;;11.40;99.90;;;;;;5115679;28;20031;-64
2022/10/18 06:55:34;;;;;;;277.38;42.88;;;11.40;99.90;;;;;;5116392;28;20086;-64
2022/10/18 06:58:00;;;;;;;236.45;32.45;;;11.40;99.90;;;;;;5114870;27;20035;-63
2022/10/18 07:00:26;;;;;;;275.40;41.65;;;11.40;99.90;;;;;;5124896;27;20054;-64
2022/10/18 07:02:51;;;;;;;349.23;37.65;;;11.50;99.90;;;;;;5126732;27;20062;-64
2022/10/18 07:05:17;;;;;;;212.73;34.20;;;11.50;99.90;;;;;;5127580;27;20115;-64
2022/10/18 07:07:43;;;;;;;250.57;34.20;;;11.50;99.90;;;;;;5123065;27;20122;-64
2022/10/18 07:10:09;;;;;;;306.80;41.53;;;11.50;99.90;;;;;;5122077;27;20039;-64
2022/10/18 07:12:34;;;;;;;166.48;27.40;;;11.60;99.90;;;;;;5118495;27;20040;-63
2022/10/18 07:15:00;;;;;;;217.23;35.13;;;11.60;99.90;;;;;;5113654;27;20549;-63
2022/10/18 07:17:26;;;;;;;242.30;38.25;;;11.60;99.90;;;;;;5120624;27;20115;-64
2022/10/18 07:19:52;;;;;;;162.90;29.02;;;11.60;99.90;;;;;;5125533;27;20047;-63
2022/10/18 07:22:17;;;;;;;165.77;29.23;;;11.60;99.90;;;;;;5119007;27;20052;-64
2022/10/18 07:24:43;;;;;;;97.03;19.15;;;11.60;99.90;;;;;;5114499;27;20349;-63
2022/10/18 07:27:09;;;;;;;115.18;20.70;;;11.60;99.90;;;;;;5127377;27;20487;-63
2022/10/18 07:29:37;;;;;;;134.80;22.02;;;11.70;99.90;;;;;;5123308;27;20145;-64
2022/10/18 07:32:03;;;;;;;39.03;14.32;;;11.70;99.90;;;;;;5129826;27;20043;-64
2022/10/18 07:34:29;;;;;;;82.68;20.20;;;11.60;99.90;;;;;;5118173;27;20067;-64
2022/10/18 07:36:55;;;;;;;75.90;17.63;;;11.70;99.90;;;;;;5102672;28;20154;-65
2022/10/18 07:39:21;;;;;;;180.35;31.80;;;11.70;99.90;;;;;;5126270;27;20474;-64
2022/10/18 07:41:46;;;;;;;138.98;25.10;;;11.70;99.90;;;;;;5122834;27;20035;-64
2022/10/18 07:44:12;;;;;;;63.88;11.82;;;11.70;99.90;;;;;;5121998;27;20115;-63
2022/10/18 07:46:38;;;;;;;153.25;28.30;;;11.80;99.90;;;;;;5152753;27;20682;-64
2022/10/18 07:49:03;;;;;;;167.35;26.02;;;11.90;99.90;;;;;;5119242;27;20474;-64
2022/10/18 07:51:31;;;;;;;87.25;18.70;;;12.00;99.90;;;;;;5116281;27;20054;-64
2022/10/18 07:53:58;;;;;;;130.93;22.13;;;12.10;99.90;;;;;;5116311;27;20035;-63
2022/10/18 07:56:24;;;;;;;94.15;17.48;;;12.20;99.90;;;;;;5122981;27;20040;-63
2022/10/18 07:58:52;;;;;;;99.82;19.75;;;12.20;99.90;;;;;;5125472;27;20478;-63
2022/10/18 08:01:19;;;;;;;217.48;26.95;;;12.30;99.90;;;;;;5124929;27;20129;-64
2022/10/18 08:03:45;;;;;;;140.52;23.35;;;12.20;99.90;;;;;;5126508;27;20051;-64
2022/10/18 08:06:12;;;;;;;97.60;24.45;;;12.20;99.90;;;;;;5122713;27;20062;-63
2022/10/18 08:08:39;;;;;;;111.03;26.05;;;12.20;99.90;;;;;;5124576;27;20095;-64
2022/10/18 08:11:08;;;;;;;296.10;34.65;;;12.20;99.90;;;;;;5119197;27;20043;-63
2022/10/18 08:13:34;;;;;;;187.98;30.58;;;12.30;99.90;;;;;;5121465;27;20087;-63
2022/10/18 08:16:05;;;;;;;362.00;40.33;;;12.30;99.90;;;;;;5123991;27;20036;-63
2022/10/18 08:18:32;;;;;;;318.38;40.28;;;12.30;99.90;;;;;;5117312;27;20042;-64
2022/10/18 08:21:02;;;;;;;399.75;46.42;;;12.30;99.90;;;;;;5126836;27;20114;-63
2022/10/18 08:23:28;;;;;;;411.48;49.60;;;12.40;99.90;;;;;;5119007;27;20110;-63
2022/10/18 08:25:54;;;;;;;366.63;44.90;;;12.50;99.90;;;;;;5128106;27;20386;-64
2022/10/18 08:28:20;;;;;;;419.80;49.95;;;12.50;99.90;;;;;;5117970;27;20032;-63
2022/10/18 08:30:45;;;;;;;193.88;40.15;;;12.60;99.90;;;;;;5122015;27;20027;-64
2022/10/18 08:33:11;;;;;;;277.05;43.50;;;12.70;99.90;;;;;;5121761;27;20447;-63
2022/10/18 08:35:37;;;;;;;380.90;49.92;;;12.80;99.90;;;;;;5121497;27;20478;-63
2022/10/18 08:38:03;;;;;;;292.83;42.28;;;12.90;99.90;;;;;;5119186;27;20123;-63
2022/10/18 08:40:29;;;;;;;279.27;42.65;;;13.10;99.90;;;;;;5124172;27;20039;-64
2022/10/18 08:43:13;;;;;;;160.82;34.42;;;13.20;99.90;;;;;;5118216;27;20047;-64
2022/10/18 08:45:40;;;;;;;184.38;34.20;;;13.20;99.90;;;;;;5128408;27;20039;-64
2022/10/18 08:48:15;;;;;;;93.35;24.60;;;13.30;99.90;;;;;;5114377;27;20051;-63
2022/10/18 08:50:41;;;;;;;156.88;32.83;;;13.50;99.90;;;;;;5120550;27;20049;-64
2022/10/18 08:53:23;;;;;;;597.60;87.43;;;13.70;99.90;;;;;;5120379;27;20042;-63
2022/10/18 08:55:59;;;;;;;54.80;17.88;;;14.10;99.90;;;;;;5125717;27;20031;-63
2022/10/18 08:58:30;;;;;;;1797.38;184.93;;;14.60;99.90;;;;;;5122901;27;20115;-63
2022/10/18 09:01:23;;;;;;;818.10;82.20;;;15.70;99.90;;;;;;5123398;27;20406;-64
2022/10/18 09:03:58;;;;;;;1206.35;132.65;;;16.90;99.90;;;;;;5121746;27;20039;-63
2022/10/18 09:06:47;;;;;;;528.78;47.20;;;18.60;99.90;;;;;;5126719;27;20042;-63
2022/10/18 09:09:25;;;;;;;145.20;23.65;;;19.80;99.90;;;;;;5109760;27;20422;-64
2022/10/18 09:12:01;;;;;;;103.07;16.10;;;20.80;99.90;;;;;;5123109;27;20343;-64
2022/10/18 09:15:07;;;;;;;60.08;11.75;;;21.50;99.90;;;;;;5123446;27;20501;-63
2022/10/18 09:18:02;;;;;;;10.93;6.22;;;21.90;99.90;;;;;;5116291;27;20130;-63
2022/10/18 09:20:47;;;;;;;6.28;4.32;;;22.40;99.90;;;;;;5115393;27;20039;-64
2022/10/18 09:23:19;;;;;;;8.35;4.13;;;22.90;99.90;;;;;;5123008;27;20028;-64
2022/10/18 09:25:54;;;;;;;5.20;3.55;;;23.20;99.90;;;;;;5125310;27;20038;-64
2022/10/18 09:28:44;;;;;;;10.82;3.97;;;23.60;99.90;;;;;;5114870;27;20086;-64
2022/10/18 09:31:34;;;;;;;9.15;3.30;;;23.60;99.90;;;;;;5121317;27;20597;-64
2022/10/18 09:34:17;;;;;;;7.60;3.88;;;23.70;99.90;;;;;;5119547;27;20193;-64
2022/10/18 09:36:44;;;;;;;6.77;3.30;;;23.90;99.90;;;;;;5117796;27;20050;-64
2022/10/18 09:39:15;;;;;;;8.25;3.40;;;23.80;99.90;;;;;;5116904;27;20476;-64
2022/10/18 09:41:49;;;;;;;9.05;3.67;;;23.90;99.90;;;;;;5123423;27;20050;-64
2022/10/18 09:44:29;;;;;;;7.30;3.20;;;24.00;99.90;;;;;;5116624;27;20040;-64
2022/10/18 09:47:20;;;;;;;8.80;3.80;;;24.10;99.90;;;;;;5126710;27;20608;-64
2022/10/18 09:49:56;;;;;;;7.57;3.17;;;24.30;99.90;;;;;;5117592;27;20039;-63
2022/10/18 09:52:40;;;;;;;8.18;3.60;;;24.60;99.90;;;;;;5122322;27;20035;-63
2022/10/18 09:55:19;;;;;;;8.10;2.95;;;25.10;98.10;;;;;;5116519;27;20039;-64
2022/10/18 09:57:51;;;;;;;7.53;2.58;;;25.40;98.00;;;;;;5121314;27;20043;-64
2022/10/18 10:00:27;;;;;;;8.23;3.05;;;25.50;99.80;;;;;;5122342;27;20420;-64
2022/10/18 10:02:53;;;;;;;10.52;2.90;;;25.70;96.40;;;;;;5121167;27;20090;-64
2022/10/18 10:05:19;;;;;;;9.05;2.47;;;25.70;95.90;;;;;;5115111;27;20044;-64
2022/10/18 10:07:47;;;;;;;9.52;2.35;;;25.40;93.10;;;;;;5121778;27;20039;-64
2022/10/18 10:10:22;;;;;;;9.60;1.73;;;25.10;92.70;;;;;;5098769;28;20126;-64
2022/10/18 10:13:05;;;;;;;8.00;1.75;;;25.10;90.00;;;;;;5099690;28;20028;-63
2022/10/18 10:15:32;;;;;;;7.28;1.65;;;25.00;86.70;;;;;;5094776;28;20115;-63
2022/10/18 10:18:02;;;;;;;8.73;1.98;;;25.00;93.10;;;;;;5099927;28;20036;-64
2022/10/18 10:20:27;;;;;;;10.73;1.80;;;25.30;93.80;;;;;;5098303;28;20046;-64
2022/10/18 10:22:53;;;;;;;8.05;2.13;;;25.60;93.30;;;;;;5101274;28;20036;-63
2022/10/18 10:25:31;;;;;;;8.27;1.60;;;26.00;92.20;;;;;;5098393;28;20395;-64
2022/10/18 10:28:03;;;;;;;10.18;2.40;;;26.00;83.30;;;;;;5100825;28;20149;-64
2022/10/18 10:30:34;;;;;;;7.97;1.77;;;25.60;82.80;;;;;;5100366;28;20380;-64
2022/10/18 10:33:00;;;;;;;11.23;2.20;;;25.40;85.20;;;;;;5097770;28;20049;-64
2022/10/18 10:35:40;;;;;;;10.75;2.42;;;25.00;87.80;;;;;;5106979;28;20048;-64
2022/10/18 10:38:20;;;;;;;8.55;1.67;;;25.10;83.90;;;;;;5100323;28;20038;-64
2022/10/18 10:40:51;;;;;;;7.43;1.73;;;25.20;87.60;;;;;;5099518;28;20036;-64
2022/10/18 10:43:37;;;;;;;8.52;1.83;;;24.80;84.70;;;;;;5076746;28;20044;-64
2022/10/18 10:46:03;;;;;;;8.90;1.95;;;24.60;81.30;;;;;;5098472;28;20507;-64
2022/10/18 10:48:58;;;;;;;8.43;1.60;;;23.70;86.50;;;;;;5100163;28;20485;-65
2022/10/18 10:51:37;;;;;;;9.73;1.95;;;23.00;86.30;;;;;;5084379;28;20120;-64
2022/10/18 10:54:15;;;;;;;9.05;1.85;;;22.80;91.70;;;;;;5087139;28;20046;-65
2022/10/18 10:56:54;;;;;;;11.15;2.25;;;23.10;90.70;;;;;;5099956;28;20081;-64
2022/10/18 10:59:21;;;;;;;11.88;1.90;;;23.50;90.00;;;;;;5102884;28;20071;-64
2022/10/18 11:01:49;;;;;;;8.18;1.33;;;23.80;91.70;;;;;;5095643;28;20042;-64
2022/10/18 11:04:27;;;;;;;7.60;1.50;;;23.50;86.40;;;;;;5093390;28;20470;-64
2022/10/18 11:07:03;;;;;;;9.25;1.48;;;23.60;85.40;;;;;;5089589;28;20083;-64
2022/10/18 11:09:37;;;;;;;9.77;1.88;;;22.40;88.30;;;;;;5119003;28;20490;-64
2022/10/18 11:12:24;;;;;;;7.65;1.60;;;21.20;91.40;;;;;;5113388;28;20047;-65
2022/10/18 11:15:16;;;;;;;9.82;1.42;;;20.50;91.60;;;;;;5118620;28;20036;-64
2022/10/18 11:18:01;;;;;;;11.20;1.70;;;20.50;92.80;;;;;;5121470;28;20142;-64
2022/10/18 11:20:35;;;;;;;10.20;2.10;;;20.60;94.60;;;;;;5122868;27;20032;-64
2022/10/18 11:23:15;;;;;;;7.05;1.35;;;21.60;93.40;;;;;;5114807;28;20050;-64
2022/10/18 11:26:09;;;;;;;9.40;1.48;;;22.50;91.30;;;;;;5123408;28;20142;-64
2022/10/18 11:28:55;;;;;;;13.23;1.67;;;23.40;90.20;;;;;;5115941;28;20039;-64
2022/10/18 11:31:36;;;;;;;9.50;1.63;;;23.50;85.30;;;;;;5115298;28;20046;-64
2022/10/18 11:34:37;;;;;;;9.82;1.73;;;23.70;85.70;;;;;;5110438;28;20549;-65
2022/10/18 11:37:22;;;;;;;13.77;2.30;;;24.00;87.00;;;;;;5120242;28;20099;-64
2022/10/18 11:40:06;;;;;;;11.15;1.85;;;24.30;87.80;;;;;;5122684;28;20047;-64
2022/10/18 11:42:55;;;;;;;8.73;1.50;;;24.50;84.20;;;;;;5117375;28;20055;-65
2022/10/18 11:45:41;;;;;;;6.43;1.60;;;23.30;77.50;;;;;;5120499;27;20039;-65
2022/10/18 11:48:34;;;;;;;6.25;1.40;;;21.60;81.00;;;;;;5121335;27;20123;-64
2022/10/18 11:51:02;;;;;;;7.32;1.45;;;20.70;85.80;;;;;;5126361;27;20035;-64
2022/10/18 11:53:58;;;;;;;5.38;1.10;;;20.70;87.90;;;;;;5123930;27;20036;-64
2022/10/18 11:56:34;;;;;;;9.05;1.60;;;21.10;87.40;;;;;;5123655;27;20035;-64
2022/10/18 11:59:32;;;;;;;8.85;1.50;;;21.60;88.30;;;;;;5125448;27;20050;-64
2022/10/18 12:02:36;;;;;;;7.28;1.17;;;21.30;85.00;;;;;;5124805;27;20049;-65
2022/10/18 12:05:04;;;;;;;10.57;1.63;;;21.80;88.10;;;;;;5120543;27;20047;-64
2022/10/18 12:07:34;;;;;;;7.85;1.20;;;21.90;88.90;;;;;;5126959;27;20043;-64
2022/10/18 12:10:02;;;;;;;10.15;1.58;;;21.20;86.70;;;;;;5117240;27;20132;-65
2022/10/18 12:12:44;;;;;;;14.60;1.98;;;20.10;90.20;;;;;;5123458;27;20031;-65
2022/10/18 12:15:25;;;;;;;9.73;1.60;;;19.20;91.70;;;;;;5118456;27;20366;-64
2022/10/18 12:18:02;;;;;;;12.00;1.83;;;18.50;93.50;;;;;;5123231;27;20376;-64
2022/10/18 12:20:35;;;;;;;9.27;1.77;;;17.90;96.90;;;;;;5116927;27;20035;-64
2022/10/18 12:23:03;;;;;;;9.55;1.42;;;17.40;98.40;;;;;;5126721;27;20039;-64
2022/10/18 12:25:32;;;;;;;8.93;1.70;;;17.10;99.90;;;;;;5121813;27;20246;-64
2022/10/18 12:28:22;;;;;;;12.93;1.73;;;17.00;99.90;;;;;;5118985;27;20344;-64
2022/10/18 12:31:02;;;;;;;7.50;1.42;;;16.90;99.90;;;;;;5107860;27;20048;-64
2022/10/18 12:33:34;;;;;;;10.18;1.80;;;16.70;99.90;;;;;;5123288;27;20035;-64
2022/10/18 12:36:21;;;;;;;9.50;1.50;;;16.40;99.90;;;;;;5122758;27;20151;-64
2022/10/18 12:38:53;;;;;;;8.63;1.23;;;16.20;99.90;;;;;;5122414;27;20036;-64
2022/10/18 12:41:26;;;;;;;10.40;1.60;;;16.10;99.90;;;;;;5120731;27;20039;-64
2022/10/18 12:43:57;;;;;;;8.20;1.33;;;15.90;99.90;;;;;;5119496;27;20043;-64
2022/10/18 12:46:23;;;;;;;7.60;0.82;;;15.90;99.90;;;;;;5118185;27;20118;-64